Terminal Aerodrome Forecast
Issued by NWS

Home | Current Version | Previous Version | Text Only | Print | Product List | Glossary On
Versions: 1 2 3 4 5 6 7 8 9 10 11 12 13 14 15 16 17 18 19 20
000
FTUS46 KLOX 010800 AAA
TAFVNY
TAF AMD
KVNY 010806Z 0108/0206 VRB03KT P6SM -SHRA SCT015 OVC050
     FM011000 VRB03KT 5SM -SHRA BR BKN015 OVC035
     FM011300 12007KT P6SM -SHRA VCTS SCT025CB BKN035
     FM011800 12007KT P6SM -SHRA SCT025 OVC040
     FM020400 14007KT P6SM VCSH SCT025 BKN035=

USA.gov is the U.S. government's official web portal to all federal, state and local government web resources and services.